Uberlandia, Brazil

10:04 AM BRT on August 27, 2014 (GMT -0300)
Uberlandia | Change Station
CLOSE
Current Station
Airport
Location: Uberlandia,
Elevation: 3094 ft
Nearby Weather Stations

Elev 3094 ft 18.88 °S, 48.23 °W | Updated 1 hour ago

Clear
Clear
66 °F
Feels Like 66 °F
N
13
Wind Variable Wind from South

Today
High -- | Low -- °F
--% Chance of Precip.
Yesterday
High -- | Low -- °F
Precip. -- in
6:24 AM 6:04 PM
Waxing Crescent, 3% visible
Pressure 30.15 in
Visibility -9999.0 miles
Clouds
Dew Point 55 °F
Humidity 68%
Rainfall 0.00 in
Snow Depth Not available.
UV Not available.
Pollen Not available.
Air Quality Not available.
Flu Activity Not available.
METAR SBUL 271200Z 18011KT CAVOK 19/13 Q1021

More Conditions Fewer Conditions

Pressure 30.15 in
Visibility -9999.0 miles
Clouds
Dew Point 55 °F
Humidity 68%
Rainfall 0.00 in
Snow Depth Not available.
UV Not available.
Pollen Not available.
Air Quality Not available.
Flu Activity Not available.
METAR SBUL 271200Z 18011KT CAVOK 19/13 Q1021

More Conditions Fewer Conditions

10-Day Weather Forecast

Almanac

Astronomy

Aug. 27, 2014 Rise Set
Actual Time 6:24 AM BRT 6:04 PM BRT
Civil Twilight 6:02 AM BRT 6:26 PM BRT
Nautical Twilight 5:37 AM BRT 6:52 PM BRT
Astronomical Twilight 5:11 AM BRT 7:17 PM BRT
Moon 7:26 AM BRT 7:49 PM BRT
Length of Visible Light 12h 23m
Length of Day
11h 39m
Tomorrow will be 0m 59s longer.
Waxing Crescent, 3% of the Moon is Illuminated
Today
Waxing Crescent
Sep 2
First Quarter
Sep 8
Full
Sep 15
Last Quarter
Sep 24
New

Yesterday's Extremes

Country Highs Country Lows

Community

WunderPhotos

Upload Photos

1,747,680 photos uploaded!

Nearby

Snow Depth

Not available.

Earthquake Activity

City Distance Mag. Time & Date
No recent earthquake activity has been reported nearby.
Minimum magnitude displayed is 2.5.

Coastal Water Temperatures

Place Temperature
No Stations Reporting

Nearby Weather Stations